createdAt,value
2022-08-20T00:01:48.134Z,6.95
2022-08-20T00:04:17.689Z,7.60
2022-08-20T00:06:46.303Z,9.63
2022-08-20T00:09:16.192Z,8.48
2022-08-20T00:11:44.275Z,6.45
2022-08-20T00:14:12.427Z,8.18
2022-08-20T00:16:43.181Z,8.07
2022-08-20T00:19:13.102Z,8.70
2022-08-20T00:21:41.573Z,8.25
2022-08-20T00:24:10.178Z,6.82
2022-08-20T00:26:52.311Z,7.50
2022-08-20T00:29:22.331Z,8.18
2022-08-20T00:31:51.291Z,13.32
2022-08-20T00:34:19.957Z,8.10
2022-08-20T00:36:48.129Z,7.78
2022-08-20T00:39:16.203Z,8.90
2022-08-20T00:41:46.400Z,8.30
2022-08-20T00:44:18.516Z,7.28
2022-08-20T00:46:47.764Z,10.50
2022-08-20T00:49:19.562Z,9.15
2022-08-20T00:51:51.576Z,6.82
2022-08-20T00:54:24.968Z,7.18
2022-08-20T00:57:00.251Z,7.68
2022-08-20T00:59:31.830Z,7.68
2022-08-20T01:02:01.665Z,7.68
2022-08-20T01:04:33.346Z,7.45
2022-08-20T01:07:01.733Z,7.00
2022-08-20T01:09:50.275Z,8.13
2022-08-20T01:12:20.693Z,7.95
2022-08-20T01:14:49.078Z,8.00
2022-08-20T01:17:21.175Z,6.88
2022-08-20T01:19:52.868Z,7.47
2022-08-20T01:22:46.932Z,7.00
2022-08-20T01:25:23.925Z,7.40
2022-08-20T01:27:55.471Z,6.55
2022-08-20T01:30:26.305Z,5.82
2022-08-20T01:32:54.414Z,8.77
2022-08-20T01:35:23.952Z,7.20
2022-08-20T01:37:52.700Z,7.70
2022-08-20T01:40:34.129Z,7.78
2022-08-20T01:43:09.752Z,8.95
2022-08-20T01:45:40.205Z,7.55
2022-08-20T01:48:08.894Z,6.78
2022-08-20T01:50:42.501Z,8.77
2022-08-20T01:53:18.636Z,9.15
2022-08-20T01:55:46.778Z,6.63
2022-08-20T01:58:16.503Z,8.25
2022-08-20T02:00:44.664Z,8.52
2022-08-20T02:03:13.089Z,7.18
2022-08-20T02:05:41.137Z,7.13
2022-08-20T02:08:09.745Z,7.60
2022-08-20T02:10:38.307Z,7.18
2022-08-20T02:13:08.904Z,7.68
2022-08-20T02:15:39.757Z,6.65
2022-08-20T02:18:14.868Z,7.03
2022-08-20T02:20:44.905Z,7.50
2022-08-20T02:23:15.660Z,7.35
2022-08-20T02:25:47.368Z,7.32
2022-08-20T02:28:19.397Z,8.27
2022-08-20T02:30:52.020Z,8.32
2022-08-20T02:33:24.214Z,8.20
2022-08-20T02:35:55.760Z,6.35
2022-08-20T02:38:23.978Z,7.05
2022-08-20T02:40:53.266Z,6.72
2022-08-20T02:43:21.650Z,7.18
2022-08-20T02:45:51.641Z,6.45
2022-08-20T02:48:23.233Z,7.20
2022-08-20T02:50:54.153Z,8.18
2022-08-20T02:53:23.406Z,10.45
2022-08-20T02:55:52.495Z,9.75
2022-08-20T02:58:21.698Z,8.65
2022-08-20T03:00:51.654Z,7.35
2022-08-20T03:03:22.994Z,9.15
2022-08-20T03:05:53.736Z,5.97
2022-08-20T03:08:23.384Z,7.38
2022-08-20T03:10:52.806Z,8.30
2022-08-20T03:13:23.035Z,7.50
2022-08-20T03:15:58.599Z,8.45
2022-08-20T03:18:29.785Z,6.68
2022-08-20T03:20:58.569Z,8.00
2022-08-20T03:23:26.919Z,7.03
2022-08-20T03:25:54.993Z,7.38
2022-08-20T03:28:23.121Z,8.23
2022-08-20T03:30:53.282Z,6.88
2022-08-20T03:33:22.287Z,7.13
2022-08-20T03:35:50.607Z,8.73
2022-08-20T03:38:25.001Z,8.05
2022-08-20T03:41:01.942Z,11.15
2022-08-20T03:43:30.357Z,8.90
2022-08-20T03:46:00.129Z,8.65
2022-08-20T03:48:29.005Z,8.15
2022-08-20T03:51:01.054Z,8.95
2022-08-20T03:53:31.601Z,7.57
2022-08-20T03:56:03.638Z,8.82
2022-08-20T03:58:35.486Z,10.00
2022-08-20T04:01:08.978Z,7.93
2022-08-20T04:03:58.901Z,7.68
2022-08-20T04:06:27.813Z,14.35
2022-08-20T04:08:55.930Z,13.70
2022-08-20T04:11:24.552Z,13.70
2022-08-20T04:13:53.103Z,13.10
2022-08-20T04:16:23.882Z,11.38
2022-08-20T04:19:01.513Z,11.70
2022-08-20T04:21:32.721Z,9.50
2022-08-20T04:24:02.647Z,10.35
2022-08-20T04:26:31.093Z,9.30
2022-08-20T04:28:59.913Z,10.35
2022-08-20T04:31:33.673Z,8.57
2022-08-20T04:34:03.418Z,9.10
2022-08-20T04:36:31.974Z,9.73
2022-08-20T04:39:00.362Z,8.13
2022-08-20T04:41:28.977Z,8.45
2022-08-20T04:43:58.141Z,9.98
2022-08-20T04:46:29.134Z,7.70
2022-08-20T04:48:58.670Z,8.90
2022-08-20T04:51:27.358Z,7.70
2022-08-20T04:53:56.944Z,9.25
2022-08-20T04:56:26.676Z,8.73
2022-08-20T04:58:56.806Z,8.30
2022-08-20T05:01:26.275Z,9.45
2022-08-20T05:03:58.207Z,9.55
2022-08-20T05:06:29.840Z,11.27
2022-08-20T05:09:01.007Z,8.27
2022-08-20T05:11:35.924Z,8.55
2022-08-20T05:14:08.012Z,9.73
2022-08-20T05:16:38.955Z,12.52
2022-08-20T05:19:09.038Z,9.73
2022-08-20T05:21:39.010Z,12.05
2022-08-20T05:24:07.966Z,9.38
2022-08-20T05:26:36.904Z,8.65
2022-08-20T05:29:06.828Z,8.55
2022-08-20T05:31:35.280Z,9.15
2022-08-20T05:34:03.658Z,8.43
2022-08-20T05:36:31.732Z,10.27
2022-08-20T05:39:01.182Z,9.50
2022-08-20T05:41:30.714Z,8.73
2022-08-20T05:44:01.933Z,9.82
2022-08-20T05:46:31.271Z,9.38
2022-08-20T05:49:02.142Z,10.40
2022-08-20T05:51:30.865Z,11.35
2022-08-20T05:54:00.407Z,8.88
2022-08-20T05:56:31.522Z,9.05
2022-08-20T05:59:02.617Z,13.25
2022-08-20T06:01:31.286Z,9.68
2022-08-20T06:04:17.050Z,9.57
2022-08-20T06:06:47.324Z,9.38
2022-08-20T06:09:31.031Z,8.23
2022-08-20T06:12:01.051Z,8.40
2022-08-20T06:14:29.497Z,11.68
2022-08-20T06:17:04.743Z,7.65
2022-08-20T06:19:34.370Z,7.85
2022-08-20T06:22:17.242Z,9.02
2022-08-20T06:24:53.570Z,9.48
2022-08-20T06:27:21.742Z,9.48
2022-08-20T06:29:50.565Z,7.78
2022-08-20T06:32:28.854Z,7.97
2022-08-20T06:35:03.137Z,12.20
2022-08-20T06:37:33.150Z,9.10
2022-08-20T06:40:06.675Z,7.35
2022-08-20T06:42:35.495Z,7.90
2022-08-20T06:45:05.837Z,6.28
2022-08-20T06:47:35.466Z,5.55
2022-08-20T06:50:03.528Z,7.28
2022-08-20T06:52:47.126Z,9.90
2022-08-20T06:55:22.740Z,7.90
2022-08-20T06:57:59.439Z,7.80
2022-08-20T07:00:28.576Z,9.98
2022-08-20T07:02:59.737Z,5.57
2022-08-20T07:05:27.934Z,6.18
2022-08-20T07:07:56.425Z,8.60
2022-08-20T07:10:27.057Z,7.07
2022-08-20T07:12:56.728Z,7.45
2022-08-20T07:15:27.087Z,4.47
2022-08-20T07:18:01.218Z,6.00
2022-08-20T07:20:31.759Z,8.48
2022-08-20T07:23:00.629Z,8.13
2022-08-20T07:25:32.033Z,9.40
2022-08-20T07:28:02.621Z,9.18
2022-08-20T07:30:56.851Z,10.90
2022-08-20T07:33:28.351Z,7.32
2022-08-20T07:35:57.062Z,7.38
2022-08-20T07:38:26.606Z,11.20
2022-08-20T07:40:59.316Z,11.45
2022-08-20T07:43:28.412Z,10.88
2022-08-20T07:46:00.752Z,11.40
2022-08-20T07:48:32.532Z,8.48
2022-08-20T07:51:03.871Z,8.65
2022-08-20T07:53:35.962Z,8.38
2022-08-20T07:56:07.432Z,7.88
2022-08-20T07:58:37.596Z,7.97
2022-08-20T08:01:06.750Z,7.55
2022-08-20T08:03:39.703Z,8.07
2022-08-20T08:06:28.349Z,6.90
2022-08-20T08:08:59.337Z,9.10
2022-08-20T08:11:29.819Z,10.80
2022-08-20T08:13:58.038Z,9.23
2022-08-20T08:16:26.507Z,7.30
2022-08-20T08:18:56.909Z,9.65
2022-08-20T08:21:25.875Z,6.88
2022-08-20T08:23:53.996Z,10.05
2022-08-20T08:26:23.053Z,8.75
2022-08-20T08:28:52.503Z,6.50
2022-08-20T08:31:20.563Z,7.32
2022-08-20T08:33:49.030Z,7.93
2022-08-20T08:36:17.701Z,6.95
2022-08-20T08:38:47.392Z,6.90
2022-08-20T08:41:20.050Z,7.15
2022-08-20T08:43:50.818Z,7.05
2022-08-20T08:46:25.103Z,5.22
2022-08-20T08:48:57.467Z,7.38
2022-08-20T08:51:33.946Z,6.15
2022-08-20T08:54:06.606Z,6.65
2022-08-20T08:56:36.426Z,5.13
2022-08-20T08:59:08.969Z,5.65
2022-08-20T09:01:54.582Z,9.68
2022-08-20T09:04:31.661Z,7.20
2022-08-20T09:07:02.424Z,4.35
2022-08-20T09:09:38.006Z,7.15
2022-08-20T09:12:09.031Z,6.00
2022-08-20T09:14:37.503Z,7.90
2022-08-20T09:17:07.853Z,7.32
2022-08-20T09:19:35.934Z,7.35
2022-08-20T09:22:09.357Z,6.60
2022-08-20T09:24:37.489Z,6.30
2022-08-20T09:27:06.572Z,6.03
2022-08-20T09:29:34.955Z,5.57
2022-08-20T09:32:10.641Z,5.30
2022-08-20T09:34:40.766Z,7.07
2022-08-20T09:37:09.259Z,6.63
2022-08-20T09:39:37.609Z,7.20
2022-08-20T09:42:10.440Z,8.02
2022-08-20T09:44:38.870Z,5.50
2022-08-20T09:47:09.314Z,4.35
2022-08-20T09:49:37.878Z,6.13
2022-08-20T09:52:08.583Z,4.85
2022-08-20T09:54:38.652Z,4.90
2022-08-20T09:57:13.613Z,5.30
2022-08-20T09:59:41.735Z,5.65
2022-08-20T10:02:11.244Z,5.25
2022-08-20T10:04:39.615Z,4.90
2022-08-20T10:07:09.854Z,4.65
2022-08-20T10:09:39.371Z,4.88
2022-08-20T10:12:08.848Z,4.38
2022-08-20T10:14:37.466Z,9.35
2022-08-20T10:17:05.725Z,6.05
2022-08-20T10:19:35.708Z,5.78
2022-08-20T10:22:04.263Z,5.82
2022-08-20T10:24:32.564Z,5.20
2022-08-20T10:27:02.250Z,5.93
2022-08-20T10:29:32.147Z,5.38
2022-08-20T10:32:10.016Z,3.58
2022-08-20T10:34:40.519Z,5.43
2022-08-20T10:37:09.193Z,4.55
2022-08-20T10:39:37.674Z,5.22
2022-08-20T10:42:05.938Z,7.22
2022-08-20T10:44:33.999Z,4.50
2022-08-20T10:47:15.576Z,4.85
2022-08-20T10:49:45.143Z,5.03
2022-08-20T10:52:13.238Z,5.18
2022-08-20T10:54:42.595Z,5.13
2022-08-20T10:57:14.504Z,4.03
2022-08-20T10:59:44.201Z,4.25
2022-08-20T11:02:12.313Z,3.63
2022-08-20T11:04:41.884Z,3.78
2022-08-20T11:07:17.266Z,4.47
2022-08-20T11:09:46.979Z,3.28
2022-08-20T11:12:15.387Z,3.28
2022-08-20T11:14:43.996Z,4.00
2022-08-20T11:17:13.031Z,5.10
2022-08-20T11:19:42.555Z,4.55
2022-08-20T11:22:11.088Z,3.42
2022-08-20T11:24:40.569Z,5.00
2022-08-20T11:27:09.983Z,2.90
2022-08-20T11:29:38.992Z,4.75
2022-08-20T11:32:07.641Z,4.68
2022-08-20T11:34:35.975Z,3.72
2022-08-20T11:37:04.337Z,5.93
2022-08-20T11:39:32.857Z,5.88
2022-08-20T11:42:02.467Z,3.10
2022-08-20T11:44:30.556Z,3.90
2022-08-20T11:47:03.842Z,5.30
2022-08-20T11:49:32.533Z,3.67
2022-08-20T11:52:00.651Z,4.57
2022-08-20T11:54:29.986Z,4.80
2022-08-20T11:56:58.875Z,6.57
2022-08-20T11:59:29.226Z,5.30
2022-08-20T12:02:03.294Z,4.75
2022-08-20T12:04:33.561Z,4.38
2022-08-20T12:07:11.081Z,5.78
2022-08-20T12:09:40.033Z,4.57
2022-08-20T12:12:16.611Z,3.53
2022-08-20T12:14:46.021Z,4.78
2022-08-20T12:17:18.074Z,4.82
2022-08-20T12:19:46.415Z,4.45
2022-08-20T12:22:25.005Z,5.05
2022-08-20T12:24:54.135Z,3.80
2022-08-20T12:27:24.429Z,4.25
2022-08-20T12:29:56.033Z,6.00
2022-08-20T12:32:26.160Z,5.97
2022-08-20T12:34:55.011Z,5.47
2022-08-20T12:37:25.868Z,6.57
2022-08-20T12:39:56.746Z,7.15
2022-08-20T12:42:25.236Z,5.18
2022-08-20T12:44:55.145Z,5.50
2022-08-20T12:47:25.083Z,4.07
2022-08-20T12:49:55.963Z,6.03
2022-08-20T12:52:26.127Z,3.95
2022-08-20T12:54:55.723Z,3.75
2022-08-20T12:57:28.650Z,1.10
2022-08-20T12:59:59.976Z,1.02
2022-08-20T13:02:28.879Z,0.50
2022-08-20T13:05:00.112Z,0.77
2022-08-20T13:07:31.596Z,0.95
2022-08-20T13:10:00.657Z,0.93
2022-08-20T13:12:28.881Z,1.02
2022-08-20T13:14:58.352Z,0.70
2022-08-20T13:17:38.273Z,0.50
2022-08-20T13:20:10.013Z,0.75
2022-08-20T13:22:38.540Z,1.17
2022-08-20T13:25:07.747Z,0.50
2022-08-20T13:27:38.718Z,1.17
2022-08-20T13:30:10.831Z,0.80
2022-08-20T13:32:39.057Z,0.70
2022-08-20T13:35:07.838Z,0.57
2022-08-20T13:37:36.378Z,0.63
2022-08-20T13:40:07.385Z,0.40
2022-08-20T13:42:36.033Z,0.40
2022-08-20T13:45:06.043Z,0.43
2022-08-20T13:47:37.171Z,0.65
2022-08-20T13:50:10.315Z,0.68
2022-08-20T13:52:39.342Z,1.20
2022-08-20T13:55:13.335Z,0.60
2022-08-20T13:57:43.657Z,0.55
2022-08-20T14:00:14.900Z,0.80
2022-08-20T14:02:45.466Z,0.35
2022-08-20T14:05:17.173Z,0.70
2022-08-20T14:07:47.236Z,0.50
2022-08-20T14:10:18.976Z,0.47
2022-08-20T14:12:48.314Z,0.65
2022-08-20T14:15:16.498Z,0.73
2022-08-20T14:17:53.514Z,0.40
2022-08-20T14:20:25.114Z,0.43
2022-08-20T14:22:58.586Z,1.55
2022-08-20T14:25:27.514Z,0.60
2022-08-20T14:27:56.761Z,0.90
2022-08-20T14:30:26.815Z,0.40
2022-08-20T14:32:57.140Z,0.30
2022-08-20T14:35:25.595Z,0.30
2022-08-20T14:37:55.856Z,0.82
2022-08-20T14:40:25.886Z,0.98
2022-08-20T14:42:54.616Z,0.70
2022-08-20T14:45:23.782Z,1.10
2022-08-20T14:47:54.450Z,0.40
2022-08-20T14:50:27.354Z,0.50
2022-08-20T14:52:56.583Z,0.50
2022-08-20T14:55:26.498Z,0.47
2022-08-20T14:57:55.067Z,1.02
2022-08-20T15:00:26.554Z,0.88
2022-08-20T15:02:55.273Z,1.27
2022-08-20T15:05:24.918Z,0.95
2022-08-20T15:07:53.896Z,1.10
2022-08-20T15:10:26.053Z,0.82
2022-08-20T15:12:54.211Z,0.75
2022-08-20T15:15:23.368Z,0.60
2022-08-20T15:17:53.805Z,0.60
2022-08-20T15:20:29.075Z,0.43
2022-08-20T15:22:57.763Z,1.02
2022-08-20T15:25:36.964Z,0.50
2022-08-20T15:28:07.231Z,1.30
2022-08-20T15:30:35.720Z,1.20
2022-08-20T15:33:03.970Z,0.55
2022-08-20T15:35:33.555Z,0.60
2022-08-20T15:38:01.980Z,0.98
2022-08-20T15:40:31.815Z,1.13
2022-08-20T15:43:01.709Z,1.70
2022-08-20T15:45:31.821Z,1.42
2022-08-20T15:48:08.391Z,1.10
2022-08-20T15:51:00.407Z,1.75
2022-08-20T15:53:34.625Z,1.50
2022-08-20T15:56:10.343Z,1.30
2022-08-20T15:58:49.683Z,1.42
2022-08-20T16:01:28.297Z,1.33
2022-08-20T16:04:19.319Z,1.30
2022-08-20T16:06:51.481Z,1.13
2022-08-20T16:09:39.219Z,1.70
2022-08-20T16:12:11.343Z,1.67
2022-08-20T16:14:42.011Z,2.95
2022-08-20T16:17:14.596Z,1.73
2022-08-20T16:19:52.141Z,1.75
2022-08-20T16:22:22.711Z,1.10
2022-08-20T16:24:51.568Z,1.73
2022-08-20T16:27:28.643Z,2.50
2022-08-20T16:30:02.833Z,1.45
2022-08-20T16:32:39.711Z,1.23
2022-08-20T16:35:29.685Z,1.55
2022-08-20T16:38:08.362Z,2.17
2022-08-20T16:40:44.309Z,0.95
2022-08-20T16:43:24.222Z,1.42
2022-08-20T16:45:59.998Z,2.10
2022-08-20T16:48:35.331Z,1.45
2022-08-20T16:51:07.153Z,3.15
2022-08-20T16:53:37.478Z,1.35
2022-08-20T16:56:06.093Z,1.88
2022-08-20T16:58:34.580Z,1.58
2022-08-20T17:01:09.118Z,1.27
2022-08-20T17:03:39.418Z,1.20
2022-08-20T17:06:17.346Z,1.80
2022-08-20T17:08:51.448Z,1.23
2022-08-20T17:11:26.315Z,1.25
2022-08-20T17:14:06.167Z,2.30
2022-08-20T17:16:36.952Z,1.85
2022-08-20T17:19:14.823Z,1.45
2022-08-20T17:21:44.348Z,1.90
2022-08-20T17:24:23.516Z,2.55
2022-08-20T17:26:58.231Z,2.22
2022-08-20T17:29:28.904Z,1.63
2022-08-20T17:31:59.198Z,1.30
2022-08-20T17:34:29.754Z,1.83
2022-08-20T17:36:59.782Z,1.50
2022-08-20T17:39:31.999Z,1.50
2022-08-20T17:42:09.007Z,3.08
2022-08-20T17:44:42.670Z,1.35
2022-08-20T17:47:16.032Z,1.38
2022-08-20T17:50:01.228Z,1.55
2022-08-20T17:52:35.444Z,3.17
2022-08-20T17:55:07.604Z,2.25
2022-08-20T17:57:40.839Z,1.40
2022-08-20T18:00:14.428Z,1.60
2022-08-20T18:02:42.931Z,1.45
2022-08-20T18:05:17.400Z,1.95
2022-08-20T18:07:59.707Z,2.55
2022-08-20T18:10:31.051Z,2.30
2022-08-20T18:13:05.934Z,1.35
2022-08-20T18:15:38.956Z,2.05
2022-08-20T18:18:18.481Z,1.65
2022-08-20T18:21:14.446Z,2.22
2022-08-20T18:23:47.886Z,3.17
2022-08-20T18:26:22.728Z,1.88
2022-08-20T18:28:55.289Z,2.60
2022-08-20T18:31:28.287Z,1.40
2022-08-20T18:33:57.751Z,2.42
2022-08-20T18:36:30.399Z,2.03
2022-08-20T18:39:03.796Z,1.80
2022-08-20T18:41:35.553Z,1.30
2022-08-20T18:44:06.835Z,2.30
2022-08-20T18:46:35.785Z,1.67
2022-08-20T18:49:07.330Z,1.30
2022-08-20T18:51:40.727Z,2.08
2022-08-20T18:54:09.214Z,1.92
2022-08-20T18:56:44.093Z,1.77
2022-08-20T18:59:18.409Z,1.30
2022-08-20T19:01:49.400Z,1.55
2022-08-20T19:04:28.693Z,3.80
2022-08-20T19:07:01.143Z,2.38
2022-08-20T19:09:54.087Z,1.45
2022-08-20T19:12:50.429Z,2.70
2022-08-20T19:15:21.543Z,2.13
2022-08-20T19:18:02.943Z,1.67
2022-08-20T19:20:34.598Z,3.25
2022-08-20T19:23:07.467Z,1.80
2022-08-20T19:25:38.885Z,2.30
2022-08-20T19:28:20.676Z,2.22
2022-08-20T19:30:49.383Z,1.98
2022-08-20T19:33:27.366Z,1.75
2022-08-20T19:36:09.025Z,3.40
2022-08-20T19:38:44.521Z,1.75
2022-08-20T19:41:20.206Z,1.77
2022-08-20T19:44:02.289Z,1.65
2022-08-20T19:46:37.131Z,1.83
2022-08-20T19:49:21.741Z,2.55
2022-08-20T19:52:04.328Z,3.63
2022-08-20T19:54:33.010Z,1.65
2022-08-20T19:57:06.871Z,1.75
2022-08-20T19:59:36.413Z,3.58
2022-08-20T20:02:20.297Z,2.15
2022-08-20T20:04:54.958Z,3.10
2022-08-20T20:07:28.961Z,2.45
2022-08-20T20:09:59.514Z,4.10
2022-08-20T20:12:27.683Z,3.78
2022-08-20T20:14:57.622Z,4.03
2022-08-20T20:17:29.931Z,2.53
2022-08-20T20:20:00.241Z,3.67
2022-08-20T20:22:31.491Z,1.83
2022-08-20T20:25:08.385Z,1.67
2022-08-20T20:27:37.874Z,1.70
2022-08-20T20:30:11.985Z,4.63
2022-08-20T20:32:41.248Z,2.75
2022-08-20T20:35:09.677Z,1.67
2022-08-20T20:37:50.145Z,3.40
2022-08-20T20:40:25.785Z,1.77
2022-08-20T20:43:04.445Z,2.67
2022-08-20T20:45:38.387Z,3.15
2022-08-20T20:48:19.293Z,4.45
2022-08-20T20:50:49.312Z,2.13
2022-08-20T20:53:31.434Z,1.88
2022-08-20T20:56:28.377Z,2.42
2022-08-20T20:58:56.849Z,2.20
2022-08-20T21:01:27.269Z,2.28
2022-08-20T21:04:14.298Z,3.13
2022-08-20T21:06:42.374Z,2.95
2022-08-20T21:09:10.492Z,2.10
2022-08-20T21:11:39.022Z,1.58
2022-08-20T21:14:07.459Z,2.67
2022-08-20T21:16:37.085Z,1.80
2022-08-20T21:19:08.024Z,1.55
2022-08-20T21:21:37.179Z,3.88
2022-08-20T21:24:05.633Z,2.72
2022-08-20T21:26:34.150Z,1.38
2022-08-20T21:29:02.635Z,3.03
2022-08-20T21:31:33.763Z,1.67
2022-08-20T21:34:03.907Z,2.60
2022-08-20T21:36:32.019Z,2.67
2022-08-20T21:39:00.112Z,2.00
2022-08-20T21:41:29.658Z,0.88
2022-08-20T21:43:58.695Z,1.85
2022-08-20T21:46:28.976Z,0.95
2022-08-20T21:48:57.401Z,1.92
2022-08-20T21:51:27.157Z,4.53
2022-08-20T21:53:55.605Z,1.75
2022-08-20T21:56:23.892Z,5.30
2022-08-20T21:58:53.723Z,2.88
2022-08-20T22:01:23.892Z,3.35
2022-08-20T22:03:52.095Z,1.80
2022-08-20T22:06:20.287Z,1.75
2022-08-20T22:08:50.100Z,2.67
2022-08-20T22:11:18.727Z,1.55
2022-08-20T22:13:47.707Z,2.72
2022-08-20T22:16:23.087Z,2.58
2022-08-20T22:18:52.625Z,2.25
2022-08-20T22:21:23.533Z,1.83
2022-08-20T22:23:54.330Z,2.75
2022-08-20T22:26:22.891Z,2.00
2022-08-20T22:28:55.552Z,3.55
2022-08-20T22:31:27.794Z,3.10
2022-08-20T22:33:56.962Z,4.35
2022-08-20T22:36:25.960Z,2.67
2022-08-20T22:38:56.184Z,3.35
2022-08-20T22:41:25.486Z,1.98
2022-08-20T22:43:56.378Z,2.33
2022-08-20T22:46:27.120Z,2.60
2022-08-20T22:48:56.166Z,2.15
2022-08-20T22:51:29.202Z,3.35
2022-08-20T22:54:00.383Z,3.15
2022-08-20T22:56:30.031Z,1.10
2022-08-20T22:58:59.543Z,2.65
2022-08-20T23:01:28.832Z,3.13
2022-08-20T23:03:58.297Z,1.58
2022-08-20T23:06:27.924Z,2.53
2022-08-20T23:08:56.259Z,2.28
2022-08-20T23:11:26.056Z,1.20
2022-08-20T23:13:54.326Z,1.95
2022-08-20T23:16:22.379Z,2.58
2022-08-20T23:18:50.763Z,2.72
2022-08-20T23:21:19.302Z,1.10
2022-08-20T23:23:47.834Z,1.20
2022-08-20T23:26:22.391Z,0.93
2022-08-20T23:28:51.958Z,1.83
2022-08-20T23:31:20.149Z,1.23
2022-08-20T23:33:48.287Z,1.75
2022-08-20T23:36:19.710Z,2.55
2022-08-20T23:38:47.786Z,3.40
2022-08-20T23:41:15.808Z,2.05
2022-08-20T23:43:44.138Z,1.70
2022-08-20T23:46:14.058Z,1.80
2022-08-20T23:48:42.140Z,1.45
2022-08-20T23:51:10.495Z,1.88
2022-08-20T23:53:39.125Z,3.03
2022-08-20T23:56:07.886Z,1.25
2022-08-20T23:58:36.014Z,1.17
